createdAt,value
2023-03-14T00:00:16.035Z,55.72
2023-03-14T00:02:44.965Z,55.71
2023-03-14T00:05:13.813Z,56.10
2023-03-14T00:07:42.902Z,56.47
2023-03-14T00:10:15.865Z,56.58
2023-03-14T00:12:45.192Z,56.59
2023-03-14T00:15:14.857Z,57.15
2023-03-14T00:17:46.239Z,57.93
2023-03-14T00:20:15.468Z,58.58
2023-03-14T00:22:44.475Z,58.56
2023-03-14T00:25:14.428Z,58.81
2023-03-14T00:27:43.236Z,57.93
2023-03-14T00:30:15.219Z,57.15
2023-03-14T00:32:44.574Z,57.68
2023-03-14T00:35:13.478Z,57.67
2023-03-14T00:37:42.674Z,58.11
2023-03-14T00:40:12.065Z,58.04
2023-03-14T00:42:41.409Z,58.20
2023-03-14T00:45:12.052Z,58.55
2023-03-14T00:47:41.248Z,58.70
2023-03-14T00:50:10.829Z,58.69
2023-03-14T00:52:41.209Z,58.89
2023-03-14T00:55:11.418Z,58.86
2023-03-14T00:57:40.208Z,59.24
2023-03-14T01:00:15.497Z,59.56
2023-03-14T01:02:48.039Z,59.94
2023-03-14T01:05:21.412Z,59.64
2023-03-14T01:07:53.009Z,59.74
2023-03-14T01:10:24.853Z,59.76
2023-03-14T01:12:57.492Z,59.98
2023-03-14T01:15:28.334Z,60.09
2023-03-14T01:17:59.487Z,60.00
2023-03-14T01:20:32.590Z,60.28
2023-03-14T01:23:02.428Z,59.84
2023-03-14T01:25:32.263Z,60.14
2023-03-14T01:28:02.787Z,60.15
2023-03-14T01:30:33.438Z,59.65
2023-03-14T01:33:03.494Z,59.82
2023-03-14T01:35:33.543Z,59.62
2023-03-14T01:38:03.575Z,59.48
2023-03-14T01:40:33.503Z,59.55
2023-03-14T01:43:16.214Z,59.13
2023-03-14T01:46:24.733Z,59.45
2023-03-14T01:49:17.585Z,59.21
2023-03-14T01:52:03.534Z,59.16
2023-03-14T01:54:38.764Z,59.32
2023-03-14T01:57:23.190Z,59.45
2023-03-14T01:59:58.966Z,59.34
2023-03-14T02:02:30.891Z,59.52
2023-03-14T02:05:02.626Z,59.11
2023-03-14T02:07:56.120Z,58.87
2023-03-14T02:10:41.900Z,59.24
2023-03-14T02:13:13.300Z,58.71
2023-03-14T02:16:03.070Z,59.75
2023-03-14T02:18:44.967Z,58.92
2023-03-14T02:21:44.786Z,58.06
2023-03-14T02:24:19.710Z,58.16
2023-03-14T02:27:18.907Z,57.34
2023-03-14T02:29:55.028Z,57.51
2023-03-14T02:32:26.458Z,57.22
2023-03-14T02:35:00.201Z,56.91
2023-03-14T02:37:38.368Z,56.92
2023-03-14T02:40:09.103Z,56.09
2023-03-14T02:42:39.749Z,55.92
2023-03-14T02:45:12.299Z,55.81
2023-03-14T02:47:56.298Z,55.61
2023-03-14T02:50:33.274Z,56.18
2023-03-14T02:53:03.385Z,54.78
2023-03-14T02:55:34.515Z,54.38
2023-03-14T02:58:10.290Z,53.90
2023-03-14T03:00:40.401Z,53.96
2023-03-14T03:03:12.895Z,53.65
2023-03-14T03:05:44.768Z,53.49
2023-03-14T03:08:14.238Z,53.49
2023-03-14T03:10:44.285Z,53.37
2023-03-14T03:13:14.220Z,53.26
2023-03-14T03:15:44.851Z,52.47
2023-03-14T03:18:14.740Z,52.65
2023-03-14T03:20:47.334Z,52.33
2023-03-14T03:23:17.370Z,52.45
2023-03-14T03:25:52.350Z,51.94
2023-03-14T03:28:22.953Z,51.55
2023-03-14T03:30:53.951Z,51.35
2023-03-14T03:33:25.824Z,50.76
2023-03-14T03:35:56.783Z,50.42
2023-03-14T03:38:32.294Z,50.73
2023-03-14T03:41:11.233Z,50.29
2023-03-14T03:43:41.808Z,50.44
2023-03-14T03:46:13.769Z,49.67
2023-03-14T03:48:43.741Z,49.31
2023-03-14T03:51:17.532Z,49.41
2023-03-14T03:53:47.597Z,48.40
2023-03-14T03:56:22.522Z,48.32
2023-03-14T03:58:53.228Z,48.23
2023-03-14T04:01:23.210Z,48.29
2023-03-14T04:03:56.914Z,47.82
2023-03-14T04:06:28.177Z,47.92
2023-03-14T04:09:00.974Z,48.31
2023-03-14T04:11:39.938Z,48.30
2023-03-14T04:14:29.398Z,48.24
2023-03-14T04:17:25.400Z,47.71
2023-03-14T04:19:56.052Z,47.69
2023-03-14T04:22:33.665Z,47.39
2023-03-14T04:25:05.574Z,48.75
2023-03-14T04:27:39.205Z,48.33
2023-03-14T04:30:17.494Z,48.22
2023-03-14T04:32:53.221Z,48.50
2023-03-14T04:35:26.448Z,48.38
2023-03-14T04:38:05.470Z,48.22
2023-03-14T04:40:38.586Z,48.19
2023-03-14T04:43:11.624Z,47.77
2023-03-14T04:45:47.429Z,47.63
2023-03-14T04:48:16.857Z,48.03
2023-03-14T04:50:45.638Z,47.97
2023-03-14T04:53:15.133Z,47.71
2023-03-14T04:55:51.776Z,46.99
2023-03-14T04:58:23.513Z,46.79
2023-03-14T05:00:53.873Z,46.31
2023-03-14T05:04:00.927Z,46.53
2023-03-14T05:06:50.123Z,46.10
2023-03-14T05:09:36.481Z,45.57
2023-03-14T05:12:43.627Z,45.44
2023-03-14T05:15:44.527Z,45.24
2023-03-14T05:18:45.111Z,45.32
2023-03-14T05:21:39.321Z,45.20
2023-03-14T05:24:37.707Z,44.98
2023-03-14T05:27:41.906Z,44.82
2023-03-14T05:30:35.568Z,44.55
2023-03-14T05:33:07.716Z,43.99
2023-03-14T05:35:55.370Z,43.93
2023-03-14T05:38:42.800Z,43.96
2023-03-14T05:41:31.865Z,43.50
2023-03-14T05:44:19.146Z,43.19
2023-03-14T05:46:57.304Z,43.19
2023-03-14T05:49:44.822Z,42.42
2023-03-14T05:52:33.796Z,42.20
2023-03-14T05:55:11.080Z,42.71
2023-03-14T05:57:56.158Z,42.44
2023-03-14T06:00:36.747Z,42.75
2023-03-14T06:03:28.789Z,42.87
2023-03-14T06:05:57.952Z,43.44
2023-03-14T06:08:27.609Z,42.26
2023-03-14T06:10:56.660Z,42.58
2023-03-14T06:13:30.536Z,43.95
2023-03-14T06:16:03.154Z,43.88
2023-03-14T06:18:32.947Z,43.63
2023-03-14T06:21:02.111Z,42.76
2023-03-14T06:23:33.665Z,43.18
2023-03-14T06:26:03.710Z,42.88
2023-03-14T06:28:33.175Z,41.98
2023-03-14T06:31:04.197Z,41.65
2023-03-14T06:33:40.380Z,41.11
2023-03-14T06:36:10.611Z,41.28
2023-03-14T06:38:43.048Z,41.54
2023-03-14T06:41:12.624Z,40.98
2023-03-14T06:43:44.594Z,41.45
2023-03-14T06:46:18.028Z,41.55
2023-03-14T06:48:50.422Z,41.72
2023-03-14T06:51:20.303Z,42.46
2023-03-14T06:53:50.509Z,42.00
2023-03-14T06:56:22.529Z,41.03
2023-03-14T06:58:52.255Z,40.70
2023-03-14T07:01:26.263Z,40.54
2023-03-14T07:03:59.491Z,40.33
2023-03-14T07:06:31.339Z,41.81
2023-03-14T07:09:01.780Z,42.39
2023-03-14T07:11:32.188Z,42.08
2023-03-14T07:14:01.506Z,42.36
2023-03-14T07:16:33.362Z,42.13
2023-03-14T07:19:03.579Z,41.90
2023-03-14T07:21:34.789Z,41.11
2023-03-14T07:24:09.635Z,40.02
2023-03-14T07:26:39.577Z,40.01
2023-03-14T07:29:08.945Z,41.00
2023-03-14T07:31:38.673Z,39.48
2023-03-14T07:34:07.983Z,39.33
2023-03-14T07:36:40.928Z,39.15
2023-03-14T07:39:10.374Z,39.52
2023-03-14T07:42:02.933Z,38.98
2023-03-14T07:44:48.594Z,38.87
2023-03-14T07:47:18.028Z,38.32
2023-03-14T07:49:47.234Z,38.03
2023-03-14T07:52:16.454Z,37.45
2023-03-14T07:54:45.281Z,37.24
2023-03-14T07:57:14.274Z,37.41
2023-03-14T07:59:43.213Z,37.76
2023-03-14T08:02:15.950Z,37.75
2023-03-14T08:04:45.377Z,34.71
2023-03-14T08:07:14.245Z,38.15
2023-03-14T08:09:43.711Z,39.07
2023-03-14T08:12:12.627Z,39.70
2023-03-14T08:14:41.525Z,39.58
2023-03-14T08:17:11.037Z,39.51
2023-03-14T08:19:40.115Z,39.92
2023-03-14T08:22:08.858Z,39.51
2023-03-14T08:24:38.000Z,40.21
2023-03-14T08:27:08.791Z,40.13
2023-03-14T08:29:38.776Z,38.90
2023-03-14T08:32:08.021Z,37.94
2023-03-14T08:34:37.205Z,37.60
2023-03-14T08:37:10.866Z,36.93
2023-03-14T08:39:45.445Z,36.12
2023-03-14T08:42:14.153Z,37.20
2023-03-14T08:44:43.632Z,37.17
2023-03-14T08:47:12.624Z,37.96
2023-03-14T08:49:44.350Z,37.33
2023-03-14T08:52:13.712Z,37.25
2023-03-14T08:54:48.989Z,35.57
2023-03-14T08:57:18.277Z,36.25
2023-03-14T08:59:46.977Z,37.68
2023-03-14T09:02:16.625Z,38.25
2023-03-14T09:04:46.501Z,38.30
2023-03-14T09:07:15.520Z,38.45
2023-03-14T09:09:44.252Z,38.48
2023-03-14T09:12:14.122Z,38.57
2023-03-14T09:14:42.786Z,38.96
2023-03-14T09:17:11.812Z,40.05
2023-03-14T09:19:40.637Z,39.53
2023-03-14T09:22:09.431Z,40.07
2023-03-14T09:24:38.520Z,40.86
2023-03-14T09:27:07.659Z,42.06
2023-03-14T09:29:39.576Z,42.41
2023-03-14T09:32:08.515Z,42.50
2023-03-14T09:34:37.586Z,42.19
2023-03-14T09:37:06.972Z,41.75
2023-03-14T09:39:35.715Z,42.30
2023-03-14T09:42:08.455Z,42.33
2023-03-14T09:44:44.902Z,42.26
2023-03-14T09:47:16.451Z,42.12
2023-03-14T09:49:45.454Z,42.70
2023-03-14T09:52:19.064Z,35.60
2023-03-14T09:54:54.967Z,34.16
2023-03-14T09:57:26.823Z,32.38
2023-03-14T10:00:09.870Z,32.92
2023-03-14T10:02:39.398Z,32.98
2023-03-14T10:05:17.900Z,35.56
2023-03-14T10:07:46.957Z,35.34
2023-03-14T10:10:21.050Z,34.47
2023-03-14T10:12:58.342Z,34.80
2023-03-14T10:15:32.828Z,35.13
2023-03-14T10:18:06.154Z,34.08
2023-03-14T10:20:40.817Z,34.28
2023-03-14T10:23:26.139Z,34.10
2023-03-14T10:26:26.148Z,37.20
2023-03-14T10:29:03.540Z,37.83
2023-03-14T10:34:25.292Z,36.32
2023-03-14T10:37:08.534Z,36.88
2023-03-14T10:39:54.364Z,36.50
2023-03-14T10:42:36.026Z,34.89
2023-03-14T10:45:09.587Z,36.97
2023-03-14T10:47:50.033Z,37.17
2023-03-14T10:50:31.964Z,37.43
2023-03-14T10:53:07.886Z,38.20
2023-03-14T10:55:44.737Z,37.29
2023-03-14T10:58:24.343Z,37.81
2023-03-14T11:01:02.687Z,38.36
2023-03-14T11:03:36.026Z,37.10
2023-03-14T11:06:14.922Z,36.55
2023-03-14T11:09:09.694Z,37.39
2023-03-14T11:11:42.064Z,36.04
2023-03-14T11:14:34.354Z,36.48
2023-03-14T11:17:14.962Z,37.81
2023-03-14T11:19:43.992Z,38.40
2023-03-14T11:22:42.106Z,38.16
2023-03-14T11:25:22.015Z,38.62
2023-03-14T11:28:18.584Z,38.87
2023-03-14T11:31:01.046Z,39.19
2023-03-14T11:34:14.045Z,38.88
2023-03-14T11:37:30.439Z,40.38
2023-03-14T11:40:08.853Z,41.04
2023-03-14T11:42:38.160Z,40.72
2023-03-14T11:45:17.138Z,39.75
2023-03-14T11:47:50.652Z,38.46
2023-03-14T11:50:25.324Z,38.20
2023-03-14T11:53:05.904Z,37.73
2023-03-14T11:55:40.861Z,38.50
2023-03-14T11:58:19.021Z,37.23
2023-03-14T12:00:51.077Z,37.61
2023-03-14T12:03:32.567Z,38.59
2023-03-14T12:06:04.613Z,39.28
2023-03-14T12:08:50.046Z,40.49
2023-03-14T12:11:46.681Z,40.66
2023-03-14T12:14:28.775Z,40.75
2023-03-14T12:17:17.589Z,41.11
2023-03-14T12:19:49.001Z,41.41
2023-03-14T12:22:37.301Z,42.22
2023-03-14T12:25:17.173Z,42.55
2023-03-14T12:27:50.586Z,42.44
2023-03-14T12:30:43.635Z,42.09
2023-03-14T12:33:12.515Z,42.06
2023-03-14T12:35:51.329Z,42.19
2023-03-14T12:38:38.248Z,41.65
2023-03-14T12:41:37.575Z,41.71
2023-03-14T12:44:31.297Z,41.50
2023-03-14T12:47:17.045Z,41.82
2023-03-14T12:49:51.430Z,42.24
2023-03-14T12:52:47.347Z,43.40
2023-03-14T12:55:31.296Z,44.18
2023-03-14T12:58:00.227Z,44.45
2023-03-14T13:00:37.926Z,44.32
2023-03-14T13:03:29.953Z,44.21
2023-03-14T13:06:01.436Z,44.64
2023-03-14T13:08:40.549Z,45.09
2023-03-14T13:11:22.105Z,47.21
2023-03-14T13:13:58.377Z,46.13
2023-03-14T13:16:29.818Z,45.14
2023-03-14T13:19:25.664Z,44.25
2023-03-14T13:22:03.779Z,44.34
2023-03-14T13:24:36.819Z,44.49
2023-03-14T13:27:05.881Z,45.05
2023-03-14T13:29:35.055Z,45.39
2023-03-14T13:32:20.868Z,45.06
2023-03-14T13:34:50.629Z,45.77
2023-03-14T13:37:23.660Z,45.97
2023-03-14T13:39:54.438Z,46.71
2023-03-14T13:42:28.044Z,47.09
2023-03-14T13:44:58.980Z,47.43
2023-03-14T13:47:28.911Z,48.20
2023-03-14T13:49:58.037Z,48.53
2023-03-14T13:52:40.395Z,48.74
2023-03-14T13:55:17.986Z,48.89
2023-03-14T13:57:49.669Z,48.55
2023-03-14T14:00:29.686Z,49.26
2023-03-14T14:03:02.793Z,49.31
2023-03-14T14:05:33.956Z,48.81
2023-03-14T14:08:06.303Z,49.09
2023-03-14T14:10:38.279Z,49.32
2023-03-14T14:13:12.550Z,48.98
2023-03-14T14:15:49.196Z,48.91
2023-03-14T14:18:23.165Z,48.75
2023-03-14T14:20:52.493Z,48.36
2023-03-14T14:23:28.555Z,49.16
2023-03-14T14:25:59.783Z,49.48
2023-03-14T14:28:40.282Z,49.82
2023-03-14T14:31:24.885Z,49.88
2023-03-14T14:34:06.338Z,50.02
2023-03-14T14:36:54.017Z,50.50
2023-03-14T14:39:28.132Z,50.91
2023-03-14T14:41:57.380Z,50.98
2023-03-14T14:44:28.884Z,51.16
2023-03-14T14:47:00.900Z,51.34
2023-03-14T14:49:35.230Z,50.93
2023-03-14T14:52:18.231Z,51.29
2023-03-14T14:54:48.613Z,51.65
2023-03-14T14:57:29.079Z,52.16
2023-03-14T15:00:02.986Z,52.66
2023-03-14T15:02:47.339Z,53.01
2023-03-14T15:05:18.910Z,53.70
2023-03-14T15:07:48.530Z,53.77
2023-03-14T15:10:25.632Z,53.92
2023-03-14T15:12:54.856Z,53.87
2023-03-14T15:15:23.740Z,54.23
2023-03-14T15:17:52.986Z,53.98
2023-03-14T15:20:25.312Z,53.97
2023-03-14T15:22:54.662Z,54.40
2023-03-14T15:25:43.864Z,54.87
2023-03-14T15:28:30.469Z,54.50
2023-03-14T15:31:01.081Z,55.30
2023-03-14T15:33:30.872Z,55.97
2023-03-14T15:35:59.641Z,56.24
2023-03-14T15:38:28.604Z,56.03
2023-03-14T15:40:57.493Z,55.73
2023-03-14T15:43:26.405Z,56.66
2023-03-14T15:45:55.166Z,56.66
2023-03-14T15:48:24.909Z,56.98
2023-03-14T15:50:53.624Z,57.13
2023-03-14T15:53:22.455Z,57.19
2023-03-14T15:55:52.842Z,57.85
2023-03-14T15:58:22.665Z,57.85
2023-03-14T16:00:52.228Z,57.94
2023-03-14T16:03:21.297Z,57.85
2023-03-14T16:05:50.311Z,58.27
2023-03-14T16:08:19.086Z,58.30
2023-03-14T16:10:48.673Z,58.23
2023-03-14T16:13:17.898Z,57.99
2023-03-14T16:16:05.195Z,58.31
2023-03-14T16:18:36.446Z,58.61
2023-03-14T16:21:14.465Z,59.16
2023-03-14T16:23:43.831Z,59.26
2023-03-14T16:26:16.442Z,60.16
2023-03-14T16:28:46.753Z,60.64
2023-03-14T16:31:22.248Z,60.50
2023-03-14T16:33:51.466Z,60.38
2023-03-14T16:36:20.458Z,60.13
2023-03-14T16:38:50.631Z,60.58
2023-03-14T16:41:21.669Z,60.52
2023-03-14T16:43:53.195Z,60.37
2023-03-14T16:46:23.274Z,60.59
2023-03-14T16:48:52.641Z,60.82
2023-03-14T16:51:22.390Z,61.00
2023-03-14T16:53:51.884Z,60.45
2023-03-14T16:56:21.224Z,60.77
2023-03-14T16:58:52.233Z,61.07
2023-03-14T17:01:21.987Z,60.96
2023-03-14T17:03:53.071Z,60.91
2023-03-14T17:06:27.480Z,61.27
2023-03-14T17:08:58.706Z,61.49
2023-03-14T17:11:27.628Z,60.88
2023-03-14T17:13:56.436Z,61.29
2023-03-14T17:16:25.424Z,61.35
2023-03-14T17:18:54.211Z,61.01
2023-03-14T17:21:24.988Z,61.09
2023-03-14T17:23:54.123Z,61.28
2023-03-14T17:26:23.660Z,61.53
2023-03-14T17:28:52.968Z,61.60
2023-03-14T17:31:24.681Z,61.95
2023-03-14T17:33:54.175Z,61.85
2023-03-14T17:36:31.048Z,61.86
2023-03-14T17:39:00.336Z,61.90
2023-03-14T17:41:29.795Z,62.07
2023-03-14T17:43:58.993Z,62.52
2023-03-14T17:46:28.137Z,62.56
2023-03-14T17:48:57.090Z,63.16
2023-03-14T17:51:25.929Z,63.25
2023-03-14T17:53:54.871Z,63.28
2023-03-14T17:56:23.523Z,62.94
2023-03-14T17:58:53.371Z,63.05
2023-03-14T18:01:22.785Z,63.12
2023-03-14T18:03:57.181Z,63.13
2023-03-14T18:06:28.093Z,63.44
2023-03-14T18:08:57.848Z,63.33
2023-03-14T18:11:27.299Z,63.21
2023-03-14T18:13:56.229Z,63.37
2023-03-14T18:16:25.164Z,63.55
2023-03-14T18:18:54.924Z,63.54
2023-03-14T18:21:23.912Z,63.66
2023-03-14T18:23:52.678Z,63.51
2023-03-14T18:26:22.424Z,64.70
2023-03-14T18:28:51.580Z,64.58
2023-03-14T18:31:26.046Z,64.62
2023-03-14T18:33:57.882Z,65.60
2023-03-14T18:36:27.752Z,65.91
2023-03-14T18:38:57.559Z,65.81
2023-03-14T18:41:27.802Z,65.50
2023-03-14T18:43:56.697Z,65.53
2023-03-14T18:46:25.559Z,65.18
2023-03-14T18:48:57.755Z,65.17
2023-03-14T18:51:29.839Z,65.15
2023-03-14T18:54:09.984Z,64.93
2023-03-14T18:56:42.324Z,65.53
2023-03-14T18:59:15.273Z,65.43
2023-03-14T19:01:44.461Z,65.21
2023-03-14T19:04:13.403Z,65.66
2023-03-14T19:06:42.686Z,65.58
2023-03-14T19:09:16.228Z,65.65
2023-03-14T19:11:45.317Z,65.75
2023-03-14T19:14:16.806Z,65.99
2023-03-14T19:16:46.121Z,66.50
2023-03-14T19:19:15.470Z,66.62
2023-03-14T19:21:44.459Z,66.53
2023-03-14T19:24:19.488Z,66.89
2023-03-14T19:26:48.880Z,67.26
2023-03-14T19:29:18.252Z,67.20
2023-03-14T19:31:47.410Z,67.34
2023-03-14T19:34:16.158Z,67.91
2023-03-14T19:36:45.175Z,67.67
2023-03-14T19:39:13.949Z,68.19
2023-03-14T19:41:42.898Z,68.01
2023-03-14T19:44:14.212Z,68.53
2023-03-14T19:46:43.089Z,69.02
2023-03-14T19:49:12.381Z,68.96
2023-03-14T19:51:42.655Z,69.13
2023-03-14T19:54:11.641Z,68.84
2023-03-14T19:56:41.236Z,68.99
2023-03-14T19:59:10.402Z,69.01
2023-03-14T20:01:39.649Z,69.10
2023-03-14T20:04:08.859Z,69.28
2023-03-14T20:06:37.974Z,69.16
2023-03-14T20:09:06.968Z,69.02
2023-03-14T20:11:41.215Z,68.99
2023-03-14T20:14:10.992Z,69.15
2023-03-14T20:16:40.136Z,69.70
2023-03-14T20:19:11.327Z,69.75
2023-03-14T20:21:40.344Z,69.51
2023-03-14T20:24:09.311Z,69.49
2023-03-14T20:26:39.417Z,69.29
2023-03-14T20:29:08.559Z,69.48
2023-03-14T20:31:39.003Z,69.88
2023-03-14T20:34:08.194Z,69.42
2023-03-14T20:36:37.257Z,69.45
2023-03-14T20:39:06.628Z,69.51
2023-03-14T20:41:37.887Z,69.26
2023-03-14T20:44:09.851Z,69.90
2023-03-14T20:46:39.618Z,69.45
2023-03-14T20:49:08.622Z,69.83
2023-03-14T20:51:37.648Z,69.84
2023-03-14T20:54:08.421Z,70.01
2023-03-14T20:56:37.310Z,70.13
2023-03-14T20:59:06.285Z,70.48
2023-03-14T21:04:20.970Z,70.52
2023-03-14T21:06:49.767Z,70.83
2023-03-14T21:09:18.634Z,70.40
2023-03-14T21:11:48.149Z,70.79
2023-03-14T21:14:20.774Z,70.62
2023-03-14T21:16:50.044Z,70.70
2023-03-14T21:19:19.119Z,71.30
2023-03-14T21:21:48.291Z,71.83
2023-03-14T21:24:17.626Z,71.78
2023-03-14T21:26:47.624Z,71.89
2023-03-14T21:29:16.428Z,71.83
2023-03-14T21:31:45.527Z,71.67
2023-03-14T21:34:14.529Z,71.58
2023-03-14T21:36:43.726Z,71.38
2023-03-14T21:39:12.503Z,71.41
2023-03-14T21:41:41.417Z,71.00
2023-03-14T21:44:10.178Z,72.29
2023-03-14T21:46:39.152Z,71.91
2023-03-14T21:49:07.871Z,71.76
2023-03-14T21:51:36.985Z,71.84
2023-03-14T21:54:10.983Z,71.62
2023-03-14T21:56:40.181Z,71.79
2023-03-14T21:59:09.284Z,71.45
2023-03-14T22:01:38.298Z,71.05
2023-03-14T22:04:07.184Z,71.14
2023-03-14T22:06:36.114Z,71.23
2023-03-14T22:09:05.113Z,71.15
2023-03-14T22:11:34.086Z,71.33
2023-03-14T22:14:02.815Z,71.41
2023-03-14T22:16:31.848Z,71.45
2023-03-14T22:19:00.807Z,71.33
2023-03-14T22:21:29.688Z,71.11
2023-03-14T22:23:58.485Z,70.90
2023-03-14T22:26:27.457Z,70.56
2023-03-14T22:28:56.148Z,70.65
2023-03-14T22:31:25.388Z,70.25
2023-03-14T22:33:54.243Z,70.61
2023-03-14T22:36:23.281Z,70.50
2023-03-14T22:38:51.989Z,70.54
2023-03-14T22:41:20.958Z,70.27
2023-03-14T22:43:50.886Z,70.43
2023-03-14T22:46:19.929Z,70.93
2023-03-14T22:48:48.705Z,70.83
2023-03-14T22:51:17.699Z,70.91
2023-03-14T22:53:46.993Z,70.47
2023-03-14T22:56:15.936Z,71.08
2023-03-14T22:58:44.653Z,71.00
2023-03-14T23:01:14.610Z,70.85
2023-03-14T23:03:43.421Z,70.69
2023-03-14T23:06:12.483Z,70.46
2023-03-14T23:08:41.125Z,71.09
2023-03-14T23:11:10.371Z,70.87
2023-03-14T23:13:39.048Z,70.53
2023-03-14T23:16:09.139Z,70.37
2023-03-14T23:18:40.747Z,70.63
2023-03-14T23:21:13.162Z,71.23
2023-03-14T23:23:42.711Z,70.53
2023-03-14T23:26:12.771Z,70.48
2023-03-14T23:28:43.470Z,70.90
2023-03-14T23:31:15.363Z,70.71
2023-03-14T23:33:46.071Z,70.92
2023-03-14T23:36:16.614Z,70.99
2023-03-14T23:38:47.065Z,71.08
2023-03-14T23:41:16.663Z,71.67
2023-03-14T23:43:49.565Z,71.74
2023-03-14T23:46:18.575Z,71.91
2023-03-14T23:48:47.613Z,71.85
2023-03-14T23:51:17.621Z,71.94
2023-03-14T23:53:46.301Z,71.86
2023-03-14T23:56:16.488Z,72.34
2023-03-14T23:58:45.631Z,72.23
